Time;durP1;ratioP1;P1;durP2;ratioP2;P2;SDS_P1;SDS_P2;PMS_P1;PMS_P2;Temp;Humidity;BMP_temperature;BMP_pressure;BME280_temperature;BME280_humidity;BME280_pressure;Samples;Min_cycle;Max_cycle;Signal;HPM_P1;HPM_P2
2023/08/14 00:00:20;;;;;;;4.13;3.30;;;;;;;17.17;100.00;101574.63;5089704;28;19986;-37
2023/08/14 00:02:45;;;;;;;;;;;;;;;17.36;100.00;101577.00;5090270;28;20250;-37
2023/08/14 00:05:11;;;;;;;5.70;3.43;;;;;;;17.13;100.00;101565.31;5090246;28;19908;-36
2023/08/14 00:07:36;;;;;;;;;;;;;;;17.33;100.00;101574.81;5090401;28;20262;-36
2023/08/14 00:10:02;;;;;;;5.37;3.23;;;;;;;17.12;100.00;101574.56;5082604;28;19956;-36
2023/08/14 00:12:27;;;;;;;5.05;3.10;;;;;;;17.14;100.00;101577.06;5076448;28;20055;-36
2023/08/14 00:14:52;;;;;;;;;;;;;;;17.28;100.00;101580.22;5076403;28;20400;-37
2023/08/14 00:17:18;;;;;;;4.38;3.15;;;;;;;17.07;100.00;101574.50;5075963;28;19916;-37
2023/08/14 00:19:43;;;;;;;;;;;;;;;17.22;100.00;101576.59;5076981;28;20024;-36
2023/08/14 00:22:08;;;;;;;4.70;3.10;;;;;;;17.01;100.00;101572.00;5076767;28;19904;-36
2023/08/14 00:24:34;;;;;;;;;;;;;;;17.17;100.00;101582.00;5076514;28;20261;-36
2023/08/14 00:26:59;;;;;;;6.88;3.85;;;;;;;17.01;100.00;101574.72;5076106;28;19904;-36
2023/08/14 00:29:25;;;;;;;;;;;;;;;17.13;100.00;101570.78;5076726;28;20088;-36
2023/08/14 00:31:50;;;;;;;5.45;3.40;;;;;;;16.94;100.00;101561.28;5076614;28;19904;-36
2023/08/14 00:34:16;;;;;;;5.25;3.85;;;;;;;16.89;100.00;101569.41;5076247;28;20507;-36
2023/08/14 00:36:41;;;;;;;;;;;;;;;17.03;100.00;101561.63;5076101;28;20025;-36
2023/08/14 00:39:07;;;;;;;5.22;3.92;;;;;;;16.88;100.00;101565.81;5075521;28;19908;-36
2023/08/14 00:41:32;;;;;;;;;;;;;;;16.99;100.00;101570.34;5076296;28;20388;-36
2023/08/14 00:43:57;;;;;;;6.13;3.60;;;;;;;16.78;100.00;101567.63;5076302;28;19908;-36
2023/08/14 00:46:24;;;;;;;;;;;;;;;16.93;100.00;101567.78;5075959;28;20475;-36
2023/08/14 00:48:49;;;;;;;6.03;4.20;;;;;;;16.72;100.00;101570.28;5076253;28;19983;-36
2023/08/14 00:51:15;;;;;;;;;;;;;;;16.88;100.00;101575.94;5076452;28;20060;-36
2023/08/14 00:53:41;;;;;;;5.10;3.83;;;;;;;16.79;100.00;101566.53;5075593;28;19905;-36
2023/08/14 00:56:06;;;;;;;;;;;;;;;16.86;100.00;101561.72;5076069;28;20031;-36
2023/08/14 00:58:32;;;;;;;4.25;3.33;;;;;;;16.75;100.00;101562.69;5075299;28;19978;-36
2023/08/14 01:00:58;;;;;;;;;;;;;;;16.86;100.00;101556.25;5076459;28;20058;-36
2023/08/14 01:03:25;;;;;;;7.22;4.10;;;;;;;16.64;100.00;101562.53;5075631;28;20306;-36
2023/08/14 01:05:50;;;;;;;5.90;4.00;;;;;;;16.69;100.00;101561.78;5075356;28;20048;-36
2023/08/14 01:08:16;;;;;;;;;;;;;;;16.81;100.00;101553.47;5076024;28;20059;-36
2023/08/14 01:10:52;;;;;;;5.28;3.63;;;;;;;16.61;100.00;101552.09;5075032;28;20010;-36
2023/08/14 01:13:41;;;;;;;6.40;4.30;;;;;;;16.59;100.00;101553.41;5075516;28;20025;-36
2023/08/14 01:16:13;;;;;;;7.72;4.30;;;;;;;16.52;100.00;101550.88;5075484;28;20017;-36
2023/08/14 01:18:40;;;;;;;5.28;4.03;;;;;;;16.51;100.00;101549.25;5075884;28;20020;-36
2023/08/14 01:21:15;;;;;;;7.40;4.20;;;;;;;16.48;100.00;101549.75;5073968;28;20479;-36
2023/08/14 01:23:49;;;;;;;6.97;4.13;;;;;;;16.45;100.00;101539.34;5074803;28;20029;-37
2023/08/14 01:26:15;;;;;;;6.20;4.75;;;;;;;16.40;100.00;101542.84;5075793;28;20158;-37
2023/08/14 01:28:40;;;;;;;;;;;;;;;16.61;100.00;101543.91;5075718;28;20386;-37
2023/08/14 01:31:06;;;;;;;4.50;3.65;;;;;;;16.47;100.00;101545.38;5075420;28;20336;-36
2023/08/14 01:33:31;;;;;;;;;;;;;;;16.59;100.00;101542.50;5075551;28;20039;-36
2023/08/14 01:36:09;;;;;;;4.60;4.03;;;;;;;16.42;100.00;101540.66;5074510;28;20371;-36
2023/08/14 01:38:45;;;;;;;5.15;4.07;;;;;;;16.33;100.00;101536.72;5074728;28;20271;-36
2023/08/14 01:41:25;;;;;;;4.43;4.03;;;;;;;16.23;100.00;101537.41;5075582;28;20036;-36
2023/08/14 01:43:55;;;;;;;5.32;3.95;;;;;;;16.29;100.00;101534.75;5074686;28;20028;-36
2023/08/14 01:46:21;;;;;;;8.48;4.45;;;;;;;16.22;100.00;101530.31;5074851;28;20050;-36
2023/08/14 01:48:49;;;;;;;4.95;3.85;;;;;;;16.23;100.00;101525.66;5074236;28;20504;-36
2023/08/14 01:51:16;;;;;;;4.72;3.83;;;;;;;16.22;100.00;101521.28;5074777;28;20078;-36
2023/08/14 01:53:41;;;;;;;5.85;4.07;;;;;;;16.18;100.00;101501.88;5074147;28;20051;-36
2023/08/14 01:56:07;;;;;;;;;;;;;;;16.36;100.00;101508.94;5075150;28;20017;-36
2023/08/14 01:58:33;;;;;;;5.07;3.13;;;;;;;16.26;100.00;101506.06;5074729;28;20316;-36
2023/08/14 02:00:58;;;;;;;5.10;4.38;;;;;;;16.21;100.00;101506.00;5074846;28;20271;-36
2023/08/14 02:03:25;;;;;;;;;;;;;;;16.35;100.00;101511.91;5074625;28;20021;-36
2023/08/14 02:05:50;;;;;;;5.80;4.20;;;;;;;16.13;100.00;101503.69;5073938;28;19908;-36
2023/08/14 02:08:16;;;;;;;;;;;;;;;16.30;100.00;101496.31;5074859;28;20035;-36
2023/08/14 02:10:41;;;;;;;8.43;4.20;;;;;;;16.12;100.00;101493.88;5074917;28;19931;-36
2023/08/14 02:13:06;;;;;;;;;;;;;;;16.26;100.00;101492.44;5074578;28;20296;-36
2023/08/14 02:15:32;;;;;;;4.97;3.95;;;;;;;16.09;100.00;101491.63;5074302;28;19912;-36
2023/08/14 02:17:58;;;;;;;;;;;;;;;16.25;100.00;101506.31;5074959;28;20071;-36
2023/08/14 02:20:25;;;;;;;5.93;4.18;;;;;;;16.04;100.00;101502.47;5073983;28;19908;-36
2023/08/14 02:22:50;;;;;;;5.90;4.40;;;;;;;16.04;100.00;101491.56;5074230;28;20101;-36
2023/08/14 02:25:15;;;;;;;;;;;;;;;16.17;100.00;101493.94;5074612;28;20103;-36
2023/08/14 02:27:41;;;;;;;5.50;4.18;;;;;;;15.95;100.00;101492.00;5073606;28;19955;-36
2023/08/14 02:30:06;;;;;;;;;;;;;;;16.11;100.00;101490.31;5074037;28;20024;-36
2023/08/14 02:32:32;;;;;;;6.20;4.18;;;;;;;16.01;100.00;101498.38;5073863;28;20348;-36
2023/08/14 02:34:57;;;;;;;;;;;;;;;16.10;100.00;101496.81;5073963;28;20453;-36
2023/08/14 02:37:23;;;;;;;7.30;4.45;;;;;;;15.95;100.00;101486.53;5073649;28;19908;-36
2023/08/14 02:39:48;;;;;;;;;;;;;;;16.08;100.00;101485.34;5074157;28;20016;-36
2023/08/14 02:42:17;;;;;;;7.68;5.00;;;;;;;15.90;100.00;101477.47;5073716;28;19908;-36
2023/08/14 02:44:43;;;;;;;8.27;5.45;;;;;;;15.85;100.00;101480.09;5073380;28;20025;-36
2023/08/14 02:47:08;;;;;;;;;;;;;;;16.00;100.00;101476.78;5074654;28;20031;-36
2023/08/14 02:49:33;;;;;;;8.50;5.50;;;;;;;15.71;100.00;101468.72;5073629;28;19955;-36
2023/08/14 02:51:59;;;;;;;;;;;;;;;15.91;100.00;101474.50;5074053;28;20457;-37
2023/08/14 02:54:24;;;;;;;7.70;5.30;;;;;;;15.72;100.00;101475.03;5074137;28;20356;-37
2023/08/14 02:56:50;;;;;;;;;;;;;;;15.86;100.00;101466.25;5073974;28;20261;-36
2023/08/14 02:59:15;;;;;;;9.05;5.50;;;;;;;15.67;100.00;101470.31;5073443;28;19916;-36
2023/08/14 03:01:41;;;;;;;;;;;;;;;15.80;100.00;101471.84;5074304;28;20433;-36
2023/08/14 03:04:06;;;;;;;6.78;5.35;;;;;;;15.60;100.00;101467.72;5073517;28;19908;-36
2023/08/14 03:06:31;;;;;;;;;;;;;;;15.76;100.00;101467.97;5074302;28;20506;-36
2023/08/14 03:08:58;;;;;;;6.55;5.18;;;;;;;15.54;100.00;101460.53;5073730;28;19931;-36
2023/08/14 03:11:23;;;;;;;7.82;5.88;;;;;;;15.53;100.00;101471.72;5073497;28;20031;-36
2023/08/14 03:13:48;;;;;;;;;;;;;;;15.70;100.00;101476.09;5074090;28;20012;-36
2023/08/14 03:16:14;;;;;;;7.20;5.32;;;;;;;15.61;100.00;101474.00;5073123;28;20265;-36
2023/08/14 03:18:39;;;;;;;;;;;;;;;15.73;100.00;101472.03;5073463;28;20031;-36
2023/08/14 03:21:05;;;;;;;6.30;5.70;;;;;;;15.60;100.00;101481.34;5073383;28;19919;-36
2023/08/14 03:23:30;;;;;;;;;;;;;;;15.74;100.00;101489.22;5074269;28;20055;-36
2023/08/14 03:25:55;;;;;;;6.43;5.45;;;;;;;15.57;100.00;101491.94;5073881;28;19915;-36
2023/08/14 03:28:20;;;;;;;;;;;;;;;15.70;100.00;101487.00;5073987;28;20052;-36
2023/08/14 03:30:48;;;;;;;7.10;5.37;;;;;;;15.54;100.00;101492.44;5073280;28;19908;-36
2023/08/14 03:33:14;;;;;;;10.15;6.25;;;;;;;15.57;100.00;101484.59;5074012;28;20356;-36
2023/08/14 03:35:39;;;;;;;;;;;;;;;15.69;100.00;101477.16;5073567;28;20048;-36
2023/08/14 03:38:04;;;;;;;8.93;5.23;;;;;;;15.59;100.00;101476.97;5073423;28;19919;-36
2023/08/14 03:40:30;;;;;;;6.30;5.35;;;;;;;15.63;100.00;101478.16;5073445;28;20307;-36
2023/08/14 03:42:55;;;;;;;;;;;;;;;15.75;100.00;101479.97;5073635;28;20048;-36
2023/08/14 03:45:20;;;;;;;6.13;4.80;;;;;;;15.70;100.00;101478.00;5075661;28;19905;-36
2023/08/14 03:47:46;;;;;;;;;;;;;;;15.77;100.00;101484.09;5077352;28;20246;-36
2023/08/14 03:50:11;;;;;;;8.83;6.13;;;;;;;15.50;100.00;101483.09;5077287;28;19911;-36
2023/08/14 03:52:36;;;;;;;10.93;6.05;;;;;;;15.53;100.00;101485.34;5076921;28;20281;-36
2023/08/14 03:55:01;;;;;;;;;;;;;;;15.65;100.00;101480.63;5077151;28;20059;-36
2023/08/14 03:57:28;;;;;;;6.00;5.30;;;;;;;15.52;100.00;101487.25;5077415;28;20271;-36
2023/08/14 03:59:53;;;;;;;7.15;5.20;;;;;;;15.50;100.00;101483.09;5077161;28;20287;-36
2023/08/14 04:02:19;;;;;;;6.78;5.63;;;;;;;15.47;100.00;101481.72;5076873;28;20028;-36
2023/08/14 04:04:44;;;;;;;7.47;5.78;;;;;;;15.45;100.00;101478.38;5076615;28;20428;-36
2023/08/14 04:07:09;;;;;;;;;;;;;;;15.57;100.00;101483.78;5077532;28;20074;-36
2023/08/14 04:09:35;;;;;;;7.35;5.95;;;;;;;15.44;100.00;101484.91;5076387;28;19935;-36
2023/08/14 04:12:01;;;;;;;;;;;;;;;15.55;100.00;101483.19;5077432;28;20103;-36
2023/08/14 04:14:27;;;;;;;8.50;5.47;;;;;;;15.40;100.00;101481.84;5076871;28;20359;-36
2023/08/14 04:16:54;;;;;;;;;;;;;;;15.52;100.00;101480.94;5077039;28;20071;-36
2023/08/14 04:19:19;;;;;;;8.98;5.50;;;;;;;15.37;100.00;101481.50;5076942;28;19915;-36
2023/08/14 04:21:45;;;;;;;;;;;;;;;15.50;100.00;101472.19;5077530;28;20021;-36
2023/08/14 04:24:10;;;;;;;9.55;5.43;;;;;;;15.38;100.00;101472.28;5076223;28;19904;-37
2023/08/14 04:26:39;;;;;;;;;;;;;;;15.52;100.00;101475.47;5076296;28;20024;-43
2023/08/14 04:29:08;;;;;;;9.00;5.53;;;;;;;15.32;100.00;101456.91;5076092;28;19911;-36
2023/08/14 04:31:35;;;;;;;7.60;5.45;;;;;;;15.31;100.00;101453.34;5076702;28;20020;-36
2023/08/14 04:34:01;;;;;;;6.70;5.10;;;;;;;15.40;100.00;101459.22;5075648;28;20020;-36
2023/08/14 04:36:27;;;;;;;6.63;5.40;;;;;;;15.40;100.00;101456.50;5076030;28;20028;-36
2023/08/14 04:38:52;;;;;;;;;;;;;;;15.54;100.00;101457.81;5076550;28;20048;-36
2023/08/14 04:41:17;;;;;;;6.00;5.03;;;;;;;15.40;100.00;101460.06;5075206;28;20005;-36
2023/08/14 04:43:43;;;;;;;8.05;5.55;;;;;;;15.46;100.00;101444.59;5075808;28;20274;-36
2023/08/14 04:46:09;;;;;;;;;;;;;;;15.58;100.00;101450.81;5076220;28;20372;-36
2023/08/14 04:48:35;;;;;;;7.20;5.80;;;;;;;15.51;100.00;101444.69;5075742;28;20439;-37
2023/08/14 04:51:00;;;;;;;;;;;;;;;15.63;100.00;101445.47;5076208;28;20056;-36
2023/08/14 04:53:25;;;;;;;6.37;5.50;;;;;;;15.57;100.00;101445.59;5075694;28;20006;-36
2023/08/14 04:55:51;;;;;;;7.60;5.50;;;;;;;15.59;100.00;101436.09;5075563;28;20293;-37
2023/08/14 04:58:16;;;;;;;;;;;;;;;15.71;100.00;101438.72;5075927;28;20078;-37
2023/08/14 05:00:41;;;;;;;7.10;5.40;;;;;;;15.62;100.00;101427.41;5075309;28;19919;-37
2023/08/14 05:03:07;;;;;;;10.93;5.72;;;;;;;15.61;100.00;101422.19;5076082;28;20024;-37
2023/08/14 05:05:32;;;;;;;;;;;;;;;15.76;100.00;101422.44;5076695;28;20078;-37
2023/08/14 05:07:57;;;;;;;10.00;6.53;;;;;;;15.61;100.00;101428.47;5076201;28;20007;-37
2023/08/14 05:10:23;;;;;;;7.72;6.45;;;;;;;15.59;100.00;101429.81;5075108;28;20290;-37
2023/08/14 05:12:48;;;;;;;;;;;;;;;15.75;100.00;101437.16;5076332;28;20024;-36
2023/08/14 05:15:13;;;;;;;11.57;6.50;;;;;;;15.75;100.00;101425.44;5075183;28;19999;-37
2023/08/14 05:17:39;;;;;;;;;;;;;;;15.88;100.00;101425.91;5075866;28;20320;-37
2023/08/14 05:20:05;;;;;;;8.80;6.75;;;;;;;15.84;100.00;101410.28;5075379;28;20337;-37
2023/08/14 05:22:31;;;;;;;8.27;7.30;;;;;;;15.80;100.00;101412.69;5075056;28;20050;-37
2023/08/14 05:24:56;;;;;;;;;;;;;;;15.98;100.00;101416.22;5075439;28;20403;-37
2023/08/14 05:27:21;;;;;;;8.07;7.00;;;;;;;16.01;100.00;101424.72;5074747;28;19908;-36
2023/08/14 05:29:47;;;;;;;;;;;;;;;16.16;100.00;101421.34;5075133;28;20634;-37
2023/08/14 05:32:12;;;;;;;9.68;6.93;;;;;;;16.13;100.00;101410.94;5075157;28;19908;-37
2023/08/14 05:34:38;;;;;;;;;;;;;;;16.32;100.00;101419.63;5075834;28;20060;-37
2023/08/14 05:37:03;;;;;;;11.10;6.80;;;;;;;16.23;100.00;101416.50;5074479;28;19954;-37
2023/08/14 05:39:28;;;;;;;;;;;;;;;16.31;100.00;101424.25;5075049;28;20404;-37
2023/08/14 05:41:54;;;;;;;6.28;4.97;;;;;;;16.38;100.00;101429.50;5074709;28;20375;-37
2023/08/14 05:44:19;;;;;;;;;;;;;;;16.45;100.00;101430.97;5074962;28;20032;-37
2023/08/14 05:46:44;;;;;;;8.32;5.68;;;;;;;16.37;100.00;101417.78;5074903;28;19919;-37
2023/08/14 05:49:10;;;;;;;;;;;;;;;16.53;100.00;101437.88;5075258;28;20165;-36
2023/08/14 05:51:35;;;;;;;9.35;6.75;;;;;;;16.53;100.00;101437.88;5074713;28;20332;-37
2023/08/14 05:54:00;;;;;;;;;;;;;;;16.63;100.00;101440.72;5075152;28;20025;-37
2023/08/14 05:56:26;;;;;;;6.63;5.75;;;;;;;16.65;100.00;101435.84;5075208;28;20011;-37
2023/08/14 05:58:51;;;;;;;;;;;;;;;16.73;100.00;101443.56;5074479;28;20084;-37
2023/08/14 06:01:16;;;;;;;9.80;6.50;;;;;;;16.70;100.00;101455.00;5074866;28;19915;-37
2023/08/14 06:03:42;;;;;;;;;;;;;;;16.80;100.00;101464.41;5074667;28;20028;-37
2023/08/14 06:06:07;;;;;;;8.63;6.68;;;;;;;16.68;100.00;101453.59;5074202;28;19909;-37
2023/08/14 06:08:32;;;;;;;;;;;;;;;16.81;100.00;101455.97;5074608;28;20028;-37
2023/08/14 06:10:58;;;;;;;7.10;5.82;;;;;;;16.70;100.00;101455.00;5074970;28;20276;-37
2023/08/14 06:13:23;;;;;;;;;;;;;;;16.80;100.00;101457.03;5075375;28;20460;-37
2023/08/14 06:15:48;;;;;;;8.30;6.03;;;;;;;16.70;100.00;101455.00;5074019;28;19908;-37
2023/08/14 06:18:14;;;;;;;;;;;;;;;16.88;100.00;101472.13;5074091;28;20304;-37
2023/08/14 06:20:39;;;;;;;6.87;6.10;;;;;;;16.84;100.00;101471.03;5074769;28;19954;-37
2023/08/14 06:23:04;;;;;;;;;;;;;;;16.95;100.00;101464.56;5074436;28;20243;-37
2023/08/14 06:25:31;;;;;;;7.25;6.55;;;;;;;16.88;100.00;101450.28;5073921;28;19951;-37
2023/08/14 06:27:57;;;;;;;6.70;6.10;;;;;;;16.95;100.00;101464.56;5074590;28;20031;-37
2023/08/14 06:30:23;;;;;;;;;;;;;;;17.05;100.00;101448.25;5074012;28;20028;-37
2023/08/14 06:32:49;;;;;;;7.95;6.32;;;;;;;17.06;100.00;101446.34;5073356;28;19999;-37
2023/08/14 06:35:14;;;;;;;;;;;;;;;17.28;100.00;101452.56;5074054;28;20124;-37
2023/08/14 06:37:40;;;;;;;8.17;6.50;;;;;;;17.49;100.00;101454.38;5073106;28;20306;-37
2023/08/14 06:40:06;;;;;;;;;;;;;;;17.73;100.00;101446.63;5073885;28;20702;-37
2023/08/14 06:42:31;;;;;;;6.97;6.22;;;;;;;17.90;100.00;101445.63;5074211;28;20344;-37
2023/08/14 06:44:57;;;;;;;11.82;6.88;;;;;;;17.98;100.00;101442.38;5073383;28;20027;-37
2023/08/14 06:47:22;;;;;;;12.48;6.90;;;;;;;18.18;100.00;101444.41;5073964;28;20025;-37
2023/08/14 06:49:47;;;;;;;;;;;;;;;18.35;100.00;101439.56;5073842;28;20481;-37
2023/08/14 06:52:13;;;;;;;9.00;6.63;;;;;;;18.30;100.00;101419.53;5073353;28;19908;-37
2023/08/14 06:54:39;;;;;;;;;;;;;;;18.48;100.00;101440.94;5073726;28;20021;-37
2023/08/14 06:57:04;;;;;;;7.60;5.68;;;;;;;18.41;100.00;101443.13;5073892;28;19957;-37
2023/08/14 06:59:30;;;;;;;;;;;;;;;18.51;100.00;101434.94;5074861;28;20060;-37
2023/08/14 07:01:56;;;;;;;5.63;5.05;;;;;;;18.46;100.00;101438.47;5073514;28;20352;-37
2023/08/14 07:04:22;;;;;;;8.13;6.07;;;;;;;18.61;100.00;101434.97;5073158;28;20052;-37
2023/08/14 07:06:47;;;;;;;;;;;;;;;18.77;100.00;101428.44;5074498;28;20063;-37
2023/08/14 07:09:16;;;;;;;7.77;5.30;;;;;;;18.83;100.00;101436.66;5073736;28;20006;-37
2023/08/14 07:11:41;;;;;;;9.18;5.90;;;;;;;18.89;100.00;101424.63;5073449;28;20339;-37
2023/08/14 07:14:07;;;;;;;;;;;;;;;19.09;100.00;101427.38;5073598;28;20044;-37
2023/08/14 07:16:33;;;;;;;6.43;4.90;;;;;;;18.99;100.00;101436.44;5073376;28;19908;-37
2023/08/14 07:18:58;;;;;;;12.48;5.97;;;;;;;18.92;100.00;101435.84;5073536;28;20421;-37
2023/08/14 07:21:23;;;;;;;;;;;;;;;18.99;100.00;101435.59;5077483;28;20108;-37
2023/08/14 07:23:49;;;;;;;12.20;5.80;;;;;;;18.85;100.00;101423.53;5077011;28;19911;-37
2023/08/14 07:26:15;;;;;;;9.02;5.03;;;;;;;18.83;100.00;101437.47;5077013;28;20032;-37
2023/08/14 07:28:40;;;;;;;8.05;5.50;;;;;;;18.82;100.00;101435.84;5076828;28;20028;-37
2023/08/14 07:31:06;;;;;;;;;;;;;;;18.92;100.00;101435.03;5077642;28;20024;-37
2023/08/14 07:33:32;;;;;;;6.78;4.95;;;;;;;18.86;100.00;101447.09;5077180;28;19915;-37
2023/08/14 07:35:58;;;;;;;10.13;5.60;;;;;;;18.90;100.00;101449.03;5077976;28;20032;-37
2023/08/14 07:38:25;;;;;;;7.50;5.15;;;;;;;18.92;100.00;101452.31;5077300;28;20029;-36
2023/08/14 07:40:50;;;;;;;8.85;5.35;;;;;;;18.83;100.00;101437.47;5076694;28;20025;-36
2023/08/14 07:43:16;;;;;;;;;;;;;;;18.96;100.00;101458.88;5078013;28;20476;-36
2023/08/14 07:45:42;;;;;;;9.35;4.80;;;;;;;18.87;100.00;101460.50;5076916;28;19910;-37
2023/08/14 07:48:08;;;;;;;7.90;5.22;;;;;;;19.02;100.00;101466.00;5076870;28;20513;-37
2023/08/14 07:50:33;;;;;;;;;;;;;;;19.11;100.00;101465.47;5077828;28;20099;-36
2023/08/14 07:52:58;;;;;;;9.57;5.33;;;;;;;19.10;100.00;101464.66;5076480;28;19947;-37
2023/08/14 07:55:24;;;;;;;;;;;;;;;19.26;100.00;101452.59;5077375;28;20297;-41
2023/08/14 07:57:49;;;;;;;11.73;5.55;;;;;;;19.32;100.00;101447.09;5076571;28;19905;-36
2023/08/14 08:00:15;;;;;;;10.25;5.10;;;;;;;19.34;100.00;101451.25;5076121;28;20055;-37
2023/08/14 08:02:41;;;;;;;10.70;5.10;;;;;;;19.46;100.00;101451.75;5077152;28;20149;-37
2023/08/14 08:05:07;;;;;;;;;;;;;;;19.60;100.00;101452.06;5076653;28;20058;-36
2023/08/14 08:07:32;;;;;;;6.97;4.50;;;;;;;19.66;100.00;101452.88;5077363;28;19997;-36
2023/08/14 08:09:57;;;;;;;7.75;4.85;;;;;;;19.76;100.00;101453.69;5076461;28;20021;-36
2023/08/14 08:12:23;;;;;;;7.93;4.60;;;;;;;19.83;100.00;101447.09;5076412;28;20496;-37
2023/08/14 08:14:48;;;;;;;7.47;4.10;;;;;;;19.95;100.00;101442.09;5076357;28;20411;-37
2023/08/14 08:17:13;;;;;;;8.55;4.30;;;;;;;20.08;100.00;101444.25;5077160;28;20586;-36
2023/08/14 08:19:39;;;;;;;9.27;4.65;;;;;;;20.18;100.00;101446.97;5076155;28;20028;-36
2023/08/14 08:22:04;;;;;;;6.78;3.40;;;;;;;20.25;100.00;101439.25;5076834;28;20025;-36
2023/08/14 08:24:30;;;;;;;5.78;3.00;;;;;;;20.41;100.00;101437.25;5076518;28;20024;-36
2023/08/14 08:26:55;;;;;;;5.45;2.47;;;;;;;20.52;100.00;101435.28;5076517;28;20055;-37
2023/08/14 08:29:21;;;;;;;6.15;2.28;;;;;;;20.58;100.00;101432.22;5075899;28;20078;-36
2023/08/14 08:31:46;;;;;;;5.82;2.10;;;;;;;20.66;100.00;101424.50;5075875;28;20023;-36
2023/08/14 08:34:11;;;;;;;7.68;2.58;;;;;;;20.77;100.00;101424.13;5075732;28;20020;-36
2023/08/14 08:36:37;;;;;;;5.20;2.20;;;;;;;20.85;100.00;101427.41;5075779;28;20052;-37
2023/08/14 08:39:02;;;;;;;4.65;1.85;;;;;;;20.94;100.00;101428.44;5076199;28;20016;-36
2023/08/14 08:41:31;;;;;;;3.15;1.48;;;;;;;20.98;100.00;101427.56;5075951;28;20074;-36
2023/08/14 08:44:05;;;;;;;5.40;1.92;;;;;;;21.06;100.00;101415.94;5075568;28;20028;-37
2023/08/14 08:46:37;;;;;;;5.13;1.60;;;;;;;21.14;98.23;101414.53;5075547;28;20024;-37
2023/08/14 08:49:03;;;;;;;3.75;1.70;;;;;;;21.28;100.00;101414.69;5076616;28;20025;-36
2023/08/14 08:51:30;;;;;;;5.55;1.88;;;;;;;21.29;99.84;101417.13;5076116;28;20024;-36
2023/08/14 08:53:56;;;;;;;6.65;1.40;;;;;;;21.38;99.46;101417.38;5075420;28;20086;-36
2023/08/14 08:56:22;;;;;;;7.15;1.95;;;;;;;21.52;98.76;101420.25;5075940;28;20137;-37
2023/08/14 08:58:48;;;;;;;3.83;1.45;;;;;;;21.53;97.44;101406.22;5076285;28;20052;-37
2023/08/14 09:01:13;;;;;;;5.43;1.63;;;;;;;21.70;96.46;101413.19;5076423;28;20017;-37
2023/08/14 09:03:39;;;;;;;3.92;1.40;;;;;;;21.82;94.80;101399.84;5075994;28;20016;-37
2023/08/14 09:06:04;;;;;;;3.63;1.35;;;;;;;21.86;95.78;101403.63;5076072;28;20187;-36
2023/08/14 09:08:30;;;;;;;3.63;1.40;;;;;;;21.93;94.43;101408.81;5075354;28;20032;-37
2023/08/14 09:10:55;;;;;;;7.53;1.73;;;;;;;22.03;93.45;101403.16;5075442;28;20024;-36
2023/08/14 09:13:20;;;;;;;4.20;1.33;;;;;;;22.17;94.66;101401.38;5074985;28;20025;-37
2023/08/14 09:15:46;;;;;;;4.43;1.30;;;;;;;22.25;93.13;101410.88;5075525;28;20078;-37
2023/08/14 09:18:11;;;;;;;4.18;1.30;;;;;;;22.32;93.01;101409.44;5075714;28;20063;-37
2023/08/14 09:20:39;;;;;;;5.45;1.80;;;;;;;22.38;91.60;101398.34;5075121;28;20460;-37
2023/08/14 09:23:11;;;;;;;7.07;1.65;;;;;;;22.56;90.51;101411.31;5075654;28;20437;-37
2023/08/14 09:25:36;;;;;;;4.57;1.23;;;;;;;22.66;90.60;101411.16;5075609;28;20074;-37
2023/08/14 09:28:02;;;;;;;6.40;1.52;;;;;;;22.74;89.83;101406.88;5075344;28;20025;-37
2023/08/14 09:30:27;;;;;;;5.55;1.40;;;;;;;22.78;89.21;101407.94;5075219;28;20039;-37
2023/08/14 09:32:53;;;;;;;5.18;1.50;;;;;;;22.85;91.24;101414.72;5075743;28;20021;-36
2023/08/14 09:35:19;;;;;;;3.58;1.48;;;;;;;22.94;87.32;101414.91;5074777;28;20111;-36
2023/08/14 09:37:47;;;;;;;3.47;1.40;;;;;;;23.06;84.52;101423.50;5075278;28;20021;-37
2023/08/14 09:40:17;;;;;;;3.38;1.25;;;;;;;23.08;79.03;101428.72;5075008;28;20016;-37
2023/08/14 09:42:44;;;;;;;4.45;1.40;;;;;;;23.23;81.19;101422.13;5073612;28;20025;-37
2023/08/14 09:45:12;;;;;;;4.20;1.30;;;;;;;23.19;80.50;101424.69;5074834;28;20456;-37
2023/08/14 09:47:37;;;;;;;5.35;1.30;;;;;;;23.18;79.75;101420.28;5075439;28;20365;-37
2023/08/14 09:50:03;;;;;;;4.18;1.30;;;;;;;23.34;81.43;101418.91;5074530;28;20020;-37
2023/08/14 09:52:28;;;;;;;2.28;1.02;;;;;;;23.46;82.12;101417.59;5075330;28;20028;-37
2023/08/14 09:54:55;;;;;;;3.95;1.17;;;;;;;23.55;77.48;101416.56;5074779;28;20352;-37
2023/08/14 09:57:22;;;;;;;2.97;1.23;;;;;;;23.46;83.83;101384.47;5074682;28;20063;-37
2023/08/14 09:59:48;;;;;;;2.90;1.10;;;;;;;23.72;81.53;101393.94;5074115;28;20131;-37
2023/08/14 10:02:16;;;;;;;2.35;0.93;;;;;;;23.84;78.21;101402.50;5075163;28;20143;-37
2023/08/14 10:04:45;;;;;;;4.72;1.45;;;;;;;24.00;76.48;101394.72;5073947;28;20032;-37
2023/08/14 10:07:12;;;;;;;3.10;1.33;;;;;;;24.20;78.84;101376.91;5074591;28;20021;-37
2023/08/14 10:09:41;;;;;;;3.50;1.30;;;;;;;24.20;73.92;101385.19;5073800;28;20035;-37
2023/08/14 10:12:12;;;;;;;2.58;1.00;;;;;;;24.34;76.04;101365.81;5074406;28;20027;-37
2023/08/14 10:14:39;;;;;;;5.70;1.27;;;;;;;24.35;69.72;101382.09;5074952;28;20024;-37
2023/08/14 10:17:12;;;;;;;3.28;1.65;;;;;;;24.33;71.99;101381.59;5074637;28;20024;-37
2023/08/14 10:19:39;;;;;;;5.53;1.33;;;;;;;24.43;71.76;101371.47;5074782;28;20107;-37
2023/08/14 10:22:07;;;;;;;3.45;1.40;;;;;;;24.30;70.69;101364.81;5074073;28;20035;-37
2023/08/14 10:24:36;;;;;;;3.55;1.02;;;;;;;24.38;72.01;101359.38;5073931;28;20032;-37
2023/08/14 10:27:03;;;;;;;2.45;1.13;;;;;;;24.56;68.94;101356.78;5074537;28;20028;-37
2023/08/14 10:29:29;;;;;;;5.20;1.40;;;;;;;24.60;68.31;101352.28;5073859;28;20123;-37
2023/08/14 10:31:56;;;;;;;3.42;1.27;;;;;;;24.62;67.28;101341.69;5074471;28;20032;-37
2023/08/14 10:34:23;;;;;;;5.72;1.48;;;;;;;24.74;67.76;101341.13;5074360;28;20038;-37
2023/08/14 10:36:51;;;;;;;5.60;1.58;;;;;;;24.68;66.02;101343.19;5073536;28;20054;-37
2023/08/14 10:39:16;;;;;;;3.70;1.20;;;;;;;24.72;66.49;101338.69;5073354;28;20478;-37
2023/08/14 10:41:42;;;;;;;3.03;1.25;;;;;;;24.80;70.07;101328.81;5074597;28;20025;-37
2023/08/14 10:44:09;;;;;;;3.42;1.20;;;;;;;24.93;68.54;101325.16;5074534;28;20044;-37
2023/08/14 10:46:38;;;;;;;2.72;1.10;;;;;;;24.95;69.57;101324.84;5073695;28;20024;-37
2023/08/14 10:49:04;;;;;;;3.47;1.13;;;;;;;25.08;71.27;101323.97;5073617;28;20024;-37
2023/08/14 10:51:32;;;;;;;1.83;0.90;;;;;;;25.07;64.65;101320.38;5073647;28;20035;-37
2023/08/14 10:54:13;;;;;;;3.20;1.17;;;;;;;25.23;67.24;101326.34;5074274;28;20358;-37
2023/08/14 10:56:51;;;;;;;3.13;1.08;;;;;;;25.40;68.63;101334.72;5073588;28;20025;-37
2023/08/14 10:59:21;;;;;;;2.97;1.27;;;;;;;25.48;66.88;101332.31;5073878;28;20083;-37
2023/08/14 11:01:51;;;;;;;2.55;1.00;;;;;;;25.46;64.43;101335.38;5074081;28;20028;-37
2023/08/14 11:04:17;;;;;;;3.50;1.30;;;;;;;25.42;67.97;101326.06;5073249;28;20017;-37
2023/08/14 11:06:58;;;;;;;4.03;1.27;;;;;;;25.51;71.89;101331.66;5074374;28;20024;-37
2023/08/14 11:09:26;;;;;;;3.90;1.38;;;;;;;25.44;68.81;101334.91;5073542;28;20033;-37
2023/08/14 11:11:55;;;;;;;4.10;1.17;;;;;;;25.54;65.93;101336.56;5073239;28;20146;-37
2023/08/14 11:14:20;;;;;;;2.50;1.10;;;;;;;25.63;65.60;101343.75;5073370;28;20085;-37
2023/08/14 11:16:49;;;;;;;2.67;1.13;;;;;;;25.70;66.14;101334.97;5073444;28;20446;-37
2023/08/14 11:19:19;;;;;;;6.88;1.40;;;;;;;25.78;67.03;101325.09;5073259;28;20012;-37
2023/08/14 11:21:50;;;;;;;4.38;1.50;;;;;;;25.90;65.26;101331.63;5073689;28;20095;-37
2023/08/14 11:24:16;;;;;;;2.85;1.08;;;;;;;25.92;66.23;101328.56;5073623;28;20032;-37
2023/08/14 11:26:41;;;;;;;3.72;1.27;;;;;;;26.08;65.54;101324.19;5073903;28;20032;-37
2023/08/14 11:29:06;;;;;;;3.67;1.30;;;;;;;26.24;64.67;101332.00;5073245;28;20089;-37
2023/08/14 11:31:32;;;;;;;3.65;1.50;;;;;;;26.27;67.03;101332.19;5073653;28;20025;-37